createdAt,value
2018-06-05T00:02:23.769Z,18.48
2018-06-05T00:04:53.471Z,18.46
2018-06-05T00:07:23.217Z,18.46
2018-06-05T00:09:52.907Z,18.44
2018-06-05T00:12:22.576Z,18.38
2018-06-05T00:14:52.277Z,18.35
2018-06-05T00:17:22.080Z,18.38
2018-06-05T00:19:51.783Z,18.43
2018-06-05T00:22:21.507Z,18.41
2018-06-05T00:24:51.180Z,18.41
2018-06-05T00:27:20.830Z,18.40
2018-06-05T00:29:50.549Z,18.41
2018-06-05T00:32:20.219Z,18.26
2018-06-05T00:34:49.890Z,18.29
2018-06-05T00:37:19.615Z,18.34
2018-06-05T00:39:49.268Z,18.19
2018-06-05T00:42:18.952Z,18.08
2018-06-05T00:44:48.656Z,18.07
2018-06-05T00:47:18.322Z,17.99
2018-06-05T00:49:48.003Z,17.93
2018-06-05T00:52:17.702Z,17.86
2018-06-05T00:54:47.351Z,17.91
2018-06-05T00:57:17.017Z,17.84
2018-06-05T00:59:46.691Z,17.78
2018-06-05T01:02:16.632Z,17.77
2018-06-05T01:04:46.359Z,17.66
2018-06-05T01:07:16.101Z,17.66
2018-06-05T01:09:45.771Z,17.68
2018-06-05T01:12:15.488Z,17.69
2018-06-05T01:14:45.142Z,17.65
2018-06-05T01:17:14.811Z,17.66
2018-06-05T01:19:44.516Z,17.63
2018-06-05T01:22:14.233Z,17.58
2018-06-05T01:24:43.892Z,17.59
2018-06-05T01:27:13.871Z,17.60
2018-06-05T01:29:43.520Z,17.59
2018-06-05T01:32:13.224Z,17.56
2018-06-05T01:34:42.884Z,17.46
2018-06-05T01:37:12.543Z,17.49
2018-06-05T01:39:42.243Z,17.42
2018-06-05T01:42:11.900Z,17.44
2018-06-05T01:44:41.546Z,17.30
2018-06-05T01:47:11.235Z,17.17
2018-06-05T01:49:40.873Z,17.11
2018-06-05T01:52:10.732Z,17.03
2018-06-05T01:54:40.453Z,17.04
2018-06-05T01:57:10.104Z,16.99
2018-06-05T01:59:39.752Z,16.96
2018-06-05T02:02:09.447Z,16.92
2018-06-05T02:04:39.107Z,16.93
2018-06-05T02:07:08.883Z,16.92
2018-06-05T02:09:38.592Z,16.94
2018-06-05T02:12:08.206Z,16.87
2018-06-05T02:14:37.854Z,16.82
2018-06-05T02:17:07.591Z,16.77
2018-06-05T02:19:37.235Z,16.76
2018-06-05T02:22:07.523Z,16.67
2018-06-05T02:24:37.178Z,16.71
2018-06-05T02:27:06.951Z,16.68
2018-06-05T02:29:36.595Z,16.70
2018-06-05T02:32:06.320Z,16.66
2018-06-05T02:34:35.992Z,16.64
2018-06-05T02:37:05.680Z,16.62
2018-06-05T02:39:35.393Z,16.57
2018-06-05T02:42:05.080Z,16.52
2018-06-05T02:44:34.731Z,16.59
2018-06-05T02:47:04.457Z,16.55
2018-06-05T02:49:34.104Z,16.55
2018-06-05T02:52:03.791Z,16.60
2018-06-05T02:54:33.476Z,16.54
2018-06-05T02:57:03.140Z,16.53
2018-06-05T02:59:32.821Z,16.56
2018-06-05T03:02:02.535Z,16.55
2018-06-05T03:04:32.197Z,16.62
2018-06-05T03:07:01.908Z,16.61
2018-06-05T03:09:31.576Z,16.63
2018-06-05T03:12:01.311Z,16.69
2018-06-05T03:14:30.968Z,16.67
2018-06-05T03:17:00.633Z,16.66
2018-06-05T03:19:30.371Z,16.73
2018-06-05T03:21:59.984Z,16.82
2018-06-05T03:24:29.647Z,16.82
2018-06-05T03:26:59.320Z,16.75
2018-06-05T03:29:28.992Z,16.63
2018-06-05T03:31:58.685Z,16.67
2018-06-05T03:34:28.387Z,16.66
2018-06-05T03:36:58.069Z,16.59
2018-06-05T03:39:27.741Z,16.54
2018-06-05T03:41:57.504Z,16.45
2018-06-05T03:44:27.196Z,16.44
2018-06-05T03:46:56.886Z,16.44
2018-06-05T03:49:26.587Z,16.44
2018-06-05T03:51:56.224Z,16.40
2018-06-05T03:54:25.912Z,16.44
2018-06-05T03:56:55.578Z,16.43
2018-06-05T03:59:25.301Z,16.35
2018-06-05T04:01:54.963Z,16.28
2018-06-05T04:04:24.746Z,16.28
2018-06-05T04:06:54.408Z,16.29
2018-06-05T04:09:24.109Z,16.33
2018-06-05T04:11:53.766Z,16.35
2018-06-05T04:14:23.428Z,16.41
2018-06-05T04:16:53.300Z,16.41
2018-06-05T04:19:22.965Z,16.34
2018-06-05T04:21:52.615Z,16.24
2018-06-05T04:24:22.343Z,16.29
2018-06-05T04:26:51.976Z,16.32
2018-06-05T04:29:21.631Z,16.34
2018-06-05T04:31:51.328Z,16.29
2018-06-05T04:34:20.974Z,16.34
2018-06-05T04:36:50.659Z,16.33
2018-06-05T04:39:20.375Z,16.39
2018-06-05T04:41:50.092Z,16.43
2018-06-05T04:44:19.763Z,16.46
2018-06-05T04:46:49.649Z,16.44
2018-06-05T04:49:19.316Z,16.39
2018-06-05T04:51:48.979Z,16.51
2018-06-05T04:54:18.690Z,16.49
2018-06-05T04:56:48.337Z,16.43
2018-06-05T04:59:18.004Z,16.43
2018-06-05T05:01:47.715Z,16.51
2018-06-05T05:04:17.433Z,16.50
2018-06-05T05:06:47.150Z,16.45
2018-06-05T05:09:17.957Z,16.45
2018-06-05T05:11:47.636Z,16.49
2018-06-05T05:14:17.324Z,16.42
2018-06-05T05:16:47.132Z,16.48
2018-06-05T05:19:16.811Z,16.46
2018-06-05T05:21:46.463Z,16.48
2018-06-05T05:24:16.153Z,16.50
2018-06-05T05:26:45.845Z,16.61
2018-06-05T05:29:15.511Z,16.66
2018-06-05T05:31:45.247Z,16.63
2018-06-05T05:34:14.971Z,16.64
2018-06-05T05:36:45.137Z,16.68
2018-06-05T05:39:14.920Z,16.65
2018-06-05T05:41:44.710Z,16.68
2018-06-05T05:44:14.506Z,16.65
2018-06-05T05:46:44.333Z,16.63
2018-06-05T05:49:14.074Z,16.64
2018-06-05T05:51:44.017Z,16.65
2018-06-05T05:54:14.521Z,16.64
2018-06-05T05:56:44.212Z,16.69
2018-06-05T05:59:13.876Z,16.71
2018-06-05T06:01:43.598Z,16.75
2018-06-05T06:04:13.270Z,16.75
2018-06-05T06:06:42.930Z,16.73
2018-06-05T06:09:12.659Z,16.69
2018-06-05T06:11:42.640Z,16.74
2018-06-05T06:14:12.363Z,16.85
2018-06-05T06:16:42.049Z,16.83
2018-06-05T06:19:11.718Z,16.82
2018-06-05T06:21:41.412Z,16.80
2018-06-05T06:24:11.152Z,16.88
2018-06-05T06:26:40.801Z,16.91
2018-06-05T06:29:10.504Z,16.97
2018-06-05T06:31:40.161Z,16.91
2018-06-05T06:34:09.825Z,17.00
2018-06-05T06:36:39.532Z,16.94
2018-06-05T06:39:10.444Z,16.93
2018-06-05T06:41:40.148Z,17.01
2018-06-05T06:44:09.799Z,16.99
2018-06-05T06:46:39.461Z,16.96
2018-06-05T06:49:09.185Z,16.95
2018-06-05T06:51:38.841Z,17.01
2018-06-05T06:54:08.545Z,17.03
2018-06-05T06:56:38.290Z,17.03
2018-06-05T06:59:07.947Z,17.05
2018-06-05T07:01:37.587Z,17.12
2018-06-05T07:04:07.305Z,17.16
2018-06-05T07:06:37.073Z,17.11
2018-06-05T07:09:08.703Z,17.18
2018-06-05T07:11:38.390Z,17.23
2018-06-05T07:14:08.136Z,17.26
2018-06-05T07:16:37.795Z,17.29
2018-06-05T07:19:07.449Z,17.34
2018-06-05T07:21:37.141Z,17.47
2018-06-05T07:24:06.822Z,17.48
2018-06-05T07:26:36.480Z,17.58
2018-06-05T07:29:06.188Z,17.64
2018-06-05T07:31:35.841Z,17.60
2018-06-05T07:34:05.531Z,17.65
2018-06-05T07:36:35.252Z,17.61
2018-06-05T07:39:07.239Z,17.69
2018-06-05T07:41:36.971Z,17.65
2018-06-05T07:44:06.647Z,17.74
2018-06-05T07:46:36.372Z,17.65
2018-06-05T07:49:06.020Z,17.68
2018-06-05T07:51:35.684Z,17.56
2018-06-05T07:54:05.388Z,17.53
2018-06-05T07:56:35.052Z,17.59
2018-06-05T07:59:04.736Z,17.60
2018-06-05T08:01:34.479Z,17.55
2018-06-05T08:04:04.579Z,17.59
2018-06-05T08:06:34.283Z,17.63
2018-06-05T08:09:04.187Z,17.68
2018-06-05T08:11:33.855Z,17.77
2018-06-05T08:14:03.589Z,17.77
2018-06-05T08:16:33.245Z,17.84
2018-06-05T08:19:02.935Z,17.84
2018-06-05T08:21:32.634Z,17.82
2018-06-05T08:24:02.329Z,17.84
2018-06-05T08:26:45.958Z,17.84
2018-06-05T08:29:15.620Z,17.85
2018-06-05T08:31:45.324Z,17.94
2018-06-05T08:34:15.081Z,17.95
2018-06-05T08:36:44.851Z,18.00
2018-06-05T08:39:14.594Z,17.95
2018-06-05T08:41:44.264Z,17.98
2018-06-05T08:44:14.019Z,17.99
2018-06-05T08:46:44.245Z,17.83
2018-06-05T08:49:13.931Z,17.92
2018-06-05T08:51:43.612Z,17.96
2018-06-05T08:54:13.378Z,17.98
2018-06-05T08:56:43.048Z,18.05
2018-06-05T08:59:12.707Z,18.09
2018-06-05T09:01:42.412Z,18.17
2018-06-05T09:04:12.116Z,18.15
2018-06-05T09:06:41.795Z,18.16
2018-06-05T09:09:11.553Z,18.20
2018-06-05T09:11:41.213Z,18.18
2018-06-05T09:14:10.888Z,18.30
2018-06-05T09:16:40.637Z,18.44
2018-06-05T09:19:10.283Z,18.50
2018-06-05T09:21:39.964Z,18.57
2018-06-05T09:24:09.674Z,18.73
2018-06-05T09:26:39.343Z,18.60
2018-06-05T09:29:09.059Z,18.59
2018-06-05T09:31:38.740Z,18.58
2018-06-05T09:34:08.448Z,18.53
2018-06-05T09:36:38.214Z,18.60
2018-06-05T09:39:09.287Z,18.56
2018-06-05T09:41:38.987Z,18.58
2018-06-05T09:44:08.691Z,18.65
2018-06-05T09:46:38.431Z,18.78
2018-06-05T09:49:08.116Z,18.88
2018-06-05T09:51:37.767Z,18.98
2018-06-05T09:54:07.933Z,19.04
2018-06-05T09:56:37.608Z,18.99
2018-06-05T09:59:07.385Z,19.00
2018-06-05T10:01:37.035Z,19.08
2018-06-05T10:04:06.727Z,19.11
2018-06-05T10:06:36.826Z,19.13
2018-06-05T10:09:07.689Z,19.16
2018-06-05T10:11:37.451Z,19.10
2018-06-05T10:14:07.122Z,19.16
2018-06-05T10:16:36.781Z,19.15
2018-06-05T10:19:06.544Z,19.20
2018-06-05T10:21:36.232Z,19.20
2018-06-05T10:24:06.008Z,19.28
2018-06-05T10:26:35.701Z,19.44
2018-06-05T10:29:05.443Z,19.61
2018-06-05T10:31:35.329Z,19.66
2018-06-05T10:34:04.995Z,19.74
2018-06-05T10:36:34.695Z,19.86
2018-06-05T10:39:06.081Z,19.87
2018-06-05T10:41:35.750Z,19.83
2018-06-05T10:44:05.464Z,19.77
2018-06-05T10:46:35.179Z,19.84
2018-06-05T10:49:04.852Z,19.86
2018-06-05T10:51:34.554Z,19.87
2018-06-05T10:54:04.260Z,20.04
2018-06-05T10:56:34.077Z,20.16
2018-06-05T10:59:03.749Z,20.19
2018-06-05T11:01:33.471Z,20.33
2018-06-05T11:04:03.194Z,20.36
2018-06-05T11:06:32.856Z,20.57
2018-06-05T11:09:02.591Z,20.60
2018-06-05T11:11:32.267Z,20.61
2018-06-05T11:14:01.997Z,20.72
2018-06-05T11:16:31.700Z,20.92
2018-06-05T11:19:01.344Z,20.94
2018-06-05T11:21:31.005Z,20.91
2018-06-05T11:24:00.722Z,20.99
2018-06-05T11:26:30.389Z,21.08
2018-06-05T11:29:00.304Z,21.51
2018-06-05T11:31:29.965Z,21.59
2018-06-05T11:33:59.622Z,21.69
2018-06-05T11:36:29.344Z,21.53
2018-06-05T11:38:59.004Z,21.95
2018-06-05T11:41:28.651Z,22.35
2018-06-05T11:43:58.343Z,22.56
2018-06-05T11:46:27.988Z,23.00
2018-06-05T11:48:57.647Z,23.33
2018-06-05T11:51:27.470Z,23.40
2018-06-05T11:53:57.176Z,23.40
2018-06-05T11:56:27.164Z,23.48
2018-06-05T11:58:56.811Z,23.80
2018-06-05T12:01:26.476Z,24.11
2018-06-05T12:03:56.188Z,23.78
2018-06-05T12:06:25.833Z,23.81
2018-06-05T12:08:55.580Z,23.64
2018-06-05T12:11:25.247Z,23.91
2018-06-05T12:13:54.867Z,24.11
2018-06-05T12:16:24.543Z,24.26
2018-06-05T12:18:54.199Z,24.45
2018-06-05T12:21:23.875Z,24.69
2018-06-05T12:23:53.562Z,25.02
2018-06-05T12:26:23.224Z,25.09
2018-06-05T12:28:52.891Z,25.11
2018-06-05T12:31:22.615Z,24.95
2018-06-05T12:33:52.281Z,25.00
2018-06-05T12:36:21.944Z,25.11
2018-06-05T12:38:51.636Z,25.17
2018-06-05T12:41:21.263Z,25.26
2018-06-05T12:43:50.959Z,25.22
2018-06-05T12:46:20.640Z,25.25
2018-06-05T12:48:50.312Z,25.35
2018-06-05T12:51:19.963Z,25.47
2018-06-05T12:53:49.671Z,25.48
2018-06-05T12:56:19.311Z,25.37
2018-06-05T12:58:48.968Z,25.45
2018-06-05T13:01:18.883Z,25.31
2018-06-05T13:03:48.533Z,25.39
2018-06-05T13:06:18.288Z,25.43
2018-06-05T13:08:47.936Z,25.32
2018-06-05T13:11:17.592Z,25.38
2018-06-05T13:13:47.268Z,25.38
2018-06-05T13:16:16.946Z,25.52
2018-06-05T13:18:46.591Z,25.67
2018-06-05T13:21:16.308Z,25.76
2018-06-05T13:23:45.996Z,25.75
2018-06-05T13:26:15.660Z,25.50
2018-06-05T13:28:45.351Z,25.58
2018-06-05T13:31:15.119Z,25.73
2018-06-05T13:33:44.785Z,25.85
2018-06-05T13:36:14.515Z,25.91
2018-06-05T13:38:44.160Z,25.93
2018-06-05T13:41:13.815Z,25.72
2018-06-05T13:43:43.561Z,25.73
2018-06-05T13:46:13.217Z,25.79
2018-06-05T13:48:42.861Z,25.80
2018-06-05T13:51:12.551Z,25.89
2018-06-05T13:53:42.390Z,25.96
2018-06-05T13:56:12.127Z,26.13
2018-06-05T13:58:41.765Z,25.96
2018-06-05T14:01:11.413Z,25.89
2018-06-05T14:03:41.245Z,25.81
2018-06-05T14:06:10.991Z,25.84
2018-06-05T14:08:40.656Z,25.90
2018-06-05T14:11:10.352Z,26.03
2018-06-05T14:13:40.050Z,26.19
2018-06-05T14:16:09.755Z,26.16
2018-06-05T14:18:39.431Z,26.13
2018-06-05T14:21:09.091Z,26.05
2018-06-05T14:23:38.747Z,26.17
2018-06-05T14:26:08.444Z,25.98
2018-06-05T14:28:38.101Z,25.90
2018-06-05T14:31:07.768Z,26.17
2018-06-05T14:33:37.479Z,26.07
2018-06-05T14:36:07.371Z,26.17
2018-06-05T14:38:37.060Z,26.16
2018-06-05T14:41:06.720Z,26.15
2018-06-05T14:43:36.373Z,26.13
2018-06-05T14:46:06.082Z,25.96
2018-06-05T14:48:35.744Z,25.39
2018-06-05T14:51:05.438Z,25.27
2018-06-05T14:53:35.153Z,25.32
2018-06-05T14:56:04.824Z,24.97
2018-06-05T14:58:35.424Z,24.73
2018-06-05T15:01:05.131Z,24.51
2018-06-05T15:03:34.828Z,24.43
2018-06-05T15:06:04.545Z,24.24
2018-06-05T15:08:34.209Z,24.11
2018-06-05T15:11:03.886Z,24.07
2018-06-05T15:13:33.535Z,24.14
2018-06-05T15:16:03.268Z,23.87
2018-06-05T15:18:32.935Z,23.88
2018-06-05T15:21:02.608Z,23.86
2018-06-05T15:23:32.319Z,23.83
2018-06-05T15:26:01.997Z,23.82
2018-06-05T15:28:31.654Z,23.82
2018-06-05T15:31:01.373Z,23.85
2018-06-05T15:33:31.055Z,23.78
2018-06-05T15:36:00.728Z,23.58
2018-06-05T15:38:30.907Z,23.56
2018-06-05T15:41:00.574Z,23.62
2018-06-05T15:43:30.275Z,23.62
2018-06-05T15:45:59.970Z,23.67
2018-06-05T15:48:29.923Z,23.59
2018-06-05T15:50:59.616Z,23.64
2018-06-05T15:53:29.296Z,23.52
2018-06-05T15:55:58.971Z,23.47
2018-06-05T15:58:28.664Z,23.42
2018-06-05T16:00:58.315Z,23.37
2018-06-05T16:03:27.988Z,23.36
2018-06-05T16:05:57.815Z,23.38
2018-06-05T16:08:27.471Z,23.32
2018-06-05T16:10:57.187Z,23.35
2018-06-05T16:13:26.855Z,23.33
2018-06-05T16:15:56.516Z,23.27
2018-06-05T16:18:26.211Z,23.30
2018-06-05T16:20:55.868Z,23.19
2018-06-05T16:23:25.512Z,23.23
2018-06-05T16:25:55.224Z,23.15
2018-06-05T16:28:24.883Z,23.14
2018-06-05T16:30:54.545Z,23.13
2018-06-05T16:33:24.289Z,23.10
2018-06-05T16:35:53.951Z,23.09
2018-06-05T16:38:23.631Z,23.06
2018-06-05T16:40:53.458Z,23.12
2018-06-05T16:43:23.121Z,23.22
2018-06-05T16:45:52.776Z,23.20
2018-06-05T16:48:22.487Z,23.09
2018-06-05T16:50:52.148Z,23.06
2018-06-05T16:53:21.807Z,23.00
2018-06-05T16:55:51.520Z,22.99
2018-06-05T16:58:21.186Z,23.03
2018-06-05T17:00:50.860Z,23.07
2018-06-05T17:03:20.926Z,23.03
2018-06-05T17:05:50.587Z,22.99
2018-06-05T17:08:20.272Z,22.90
2018-06-05T17:10:50.265Z,22.89
2018-06-05T17:13:19.927Z,22.91
2018-06-05T17:15:49.808Z,22.92
2018-06-05T17:18:19.478Z,22.93
2018-06-05T17:20:49.192Z,22.92
2018-06-05T17:23:18.860Z,22.84
2018-06-05T17:25:48.534Z,22.77
2018-06-05T17:28:18.246Z,22.73
2018-06-05T17:30:48.072Z,22.72
2018-06-05T17:33:17.728Z,22.69
2018-06-05T17:35:47.440Z,22.70
2018-06-05T17:38:17.104Z,22.65
2018-06-05T17:40:46.743Z,22.70
2018-06-05T17:43:16.414Z,22.71
2018-06-05T17:45:46.103Z,22.70
2018-06-05T17:48:15.764Z,22.65
2018-06-05T17:50:45.720Z,22.63
2018-06-05T17:53:15.397Z,22.56
2018-06-05T17:55:45.088Z,22.59
2018-06-05T17:58:15.026Z,22.55
2018-06-05T18:00:44.707Z,22.51
2018-06-05T18:03:14.465Z,22.46
2018-06-05T18:05:44.201Z,22.47
2018-06-05T18:08:13.949Z,22.40
2018-06-05T18:10:43.800Z,22.36
2018-06-05T18:13:13.576Z,22.35
2018-06-05T18:15:43.327Z,22.37
2018-06-05T18:18:12.982Z,22.33
2018-06-05T18:20:42.640Z,22.30
2018-06-05T18:23:18.945Z,22.26
2018-06-05T18:25:48.630Z,22.40
2018-06-05T18:28:18.304Z,22.35
2018-06-05T18:30:47.967Z,22.30
2018-06-05T18:33:17.636Z,22.20
2018-06-05T18:35:47.335Z,22.22
2018-06-05T18:38:17.007Z,22.15
2018-06-05T18:40:46.856Z,22.12
2018-06-05T18:43:16.538Z,22.03
2018-06-05T18:45:46.192Z,21.97
2018-06-05T18:48:15.852Z,21.93
2018-06-05T18:50:45.513Z,21.88
2018-06-05T18:53:15.128Z,21.84
2018-06-05T18:55:44.747Z,21.78
2018-06-05T18:58:14.429Z,21.75
2018-06-05T19:00:44.070Z,21.71
2018-06-05T19:03:13.769Z,21.70
2018-06-05T19:05:43.464Z,21.65
2018-06-05T19:08:13.135Z,21.60
2018-06-05T19:10:42.791Z,21.51
2018-06-05T19:13:12.509Z,21.44
2018-06-05T19:15:42.153Z,21.37
2018-06-05T19:18:11.803Z,21.31
2018-06-05T19:20:41.544Z,21.25
2018-06-05T19:23:11.259Z,21.17
2018-06-05T19:25:40.956Z,21.05
2018-06-05T19:28:10.710Z,21.06
2018-06-05T19:30:40.405Z,20.98
2018-06-05T19:33:10.111Z,20.88
2018-06-05T19:35:39.884Z,20.69
2018-06-05T19:38:09.551Z,20.65
2018-06-05T19:40:39.275Z,20.48
2018-06-05T19:43:08.937Z,20.40
2018-06-05T19:45:38.619Z,20.39
2018-06-05T19:48:08.311Z,20.48
2018-06-05T19:50:37.969Z,20.50
2018-06-05T19:53:07.632Z,20.42
2018-06-05T19:55:37.374Z,20.37
2018-06-05T19:58:07.053Z,20.36
2018-06-05T20:00:36.739Z,20.29
2018-06-05T20:03:06.463Z,20.25
2018-06-05T20:05:36.392Z,20.24
2018-06-05T20:08:06.067Z,20.03
2018-06-05T20:10:35.739Z,19.74
2018-06-05T20:13:05.519Z,19.46
2018-06-05T20:15:35.533Z,19.33
2018-06-05T20:18:05.358Z,19.20
2018-06-05T20:20:35.038Z,19.17
2018-06-05T20:23:04.708Z,19.33
2018-06-05T20:25:34.438Z,19.53
2018-06-05T20:28:04.107Z,19.53
2018-06-05T20:30:33.779Z,19.50
2018-06-05T20:33:03.585Z,19.28
2018-06-05T20:35:33.269Z,19.30
2018-06-05T20:38:02.993Z,19.47
2018-06-05T20:40:32.872Z,19.49
2018-06-05T20:43:02.560Z,19.23
2018-06-05T20:45:32.376Z,19.24
2018-06-05T20:48:02.083Z,19.16
2018-06-05T20:50:31.837Z,19.04
2018-06-05T20:53:01.586Z,19.18
2018-06-05T20:55:31.328Z,19.18
2018-06-05T20:58:01.820Z,19.06
2018-06-05T21:00:31.540Z,19.11
2018-06-05T21:03:01.224Z,19.02
2018-06-05T21:05:30.897Z,19.01
2018-06-05T21:08:00.643Z,19.09
2018-06-05T21:10:30.300Z,19.06
2018-06-05T21:13:00.010Z,18.89
2018-06-05T21:15:29.694Z,19.01
2018-06-05T21:17:59.361Z,19.00
2018-06-05T21:20:29.114Z,18.86
2018-06-05T21:22:58.757Z,18.90
2018-06-05T21:25:28.420Z,18.91
2018-06-05T21:27:58.130Z,18.92
2018-06-05T21:30:27.794Z,18.62
2018-06-05T21:32:57.470Z,18.63
2018-06-05T21:35:27.547Z,18.68
2018-06-05T21:37:57.198Z,18.51
2018-06-05T21:40:26.873Z,18.54
2018-06-05T21:42:56.591Z,18.45
2018-06-05T21:45:26.236Z,18.36
2018-06-05T21:47:55.962Z,18.37
2018-06-05T21:50:25.679Z,18.26
2018-06-05T21:52:55.361Z,18.13
2018-06-05T21:55:25.124Z,18.10
2018-06-05T21:57:54.780Z,18.08
2018-06-05T22:00:24.458Z,17.94
2018-06-05T22:02:54.167Z,18.01
2018-06-05T22:05:23.853Z,18.02
2018-06-05T22:07:53.510Z,17.93
2018-06-05T22:10:23.206Z,17.76
2018-06-05T22:12:52.877Z,17.71
2018-06-05T22:15:22.544Z,17.92
2018-06-05T22:17:52.248Z,17.88
2018-06-05T22:20:21.918Z,17.86
2018-06-05T22:22:51.605Z,17.76
2018-06-05T22:25:21.287Z,17.75
2018-06-05T22:27:50.957Z,17.51
2018-06-05T22:30:20.617Z,17.53
2018-06-05T22:32:50.585Z,17.40
2018-06-05T22:35:20.279Z,17.19
2018-06-05T22:37:49.931Z,17.35
2018-06-05T22:40:19.661Z,17.34
2018-06-05T22:42:49.735Z,17.21
2018-06-05T22:45:19.436Z,17.16
2018-06-05T22:47:49.134Z,17.21
2018-06-05T22:50:18.815Z,17.20
2018-06-05T22:52:48.532Z,17.06
2018-06-05T22:55:18.223Z,17.08
2018-06-05T22:57:47.881Z,16.96
2018-06-05T23:00:23.891Z,16.94
2018-06-05T23:02:53.548Z,16.85
2018-06-05T23:05:23.252Z,16.86
2018-06-05T23:07:52.926Z,16.82
2018-06-05T23:10:22.594Z,16.76
2018-06-05T23:12:52.293Z,16.68
2018-06-05T23:15:21.960Z,16.72
2018-06-05T23:17:51.600Z,16.64
2018-06-05T23:20:21.353Z,16.65
2018-06-05T23:22:51.010Z,16.76
2018-06-05T23:25:20.685Z,16.98
2018-06-05T23:27:50.392Z,17.04
2018-06-05T23:30:20.115Z,17.03
2018-06-05T23:32:49.819Z,16.93
2018-06-05T23:35:19.772Z,17.06
2018-06-05T23:37:49.436Z,17.06
2018-06-05T23:40:19.144Z,17.10
2018-06-05T23:42:48.837Z,17.08
2018-06-05T23:45:18.488Z,17.00
2018-06-05T23:47:48.172Z,17.07
2018-06-05T23:50:17.841Z,17.08
2018-06-05T23:52:47.492Z,17.06
2018-06-05T23:55:23.676Z,17.05
2018-06-05T23:57:53.327Z,17.08
